Time;durP1;ratioP1;P1;durP2;ratioP2;P2;SDS_P1;SDS_P2;PMS_P1;PMS_P2;Temp;Humidity;BMP_temperature;BMP_pressure;BME280_temperature;BME280_humidity;BME280_pressure;Samples;Min_cycle;Max_cycle;Signal;HPM_P1;HPM_P2
2022/10/12 00:01:37;;;;;;;12.80;10.32;;;;;;;28.50;69.42;100910.59;5055702;28;70259;-37
2022/10/12 00:04:08;;;;;;;14.63;11.07;;;;;;;28.56;69.53;100913.53;5059757;28;65614;-39
2022/10/12 00:06:38;;;;;;;13.50;11.35;;;;;;;28.50;74.48;100910.59;5064698;28;70299;-36
2022/10/12 00:09:09;;;;;;;20.45;12.57;;;;;;;28.49;76.35;100911.63;5059409;28;66342;-37
2022/10/12 00:11:40;;;;;;;16.23;12.45;;;;;;;28.47;76.00;100902.94;5067946;28;70383;-38
2022/10/12 00:14:11;;;;;;;18.30;11.75;;;;;;;28.61;76.30;100921.81;5043040;28;65859;-41
2022/10/12 00:16:41;;;;;;;13.55;10.60;;;;;;;28.72;71.20;100921.22;5056092;28;70952;-37
2022/10/12 00:19:13;;;;;;;10.48;9.27;;;;;;;28.73;70.80;100912.13;5060783;28;65989;-37
2022/10/12 00:21:43;;;;;;;10.63;9.47;;;;;;;28.76;70.18;100921.66;5054424;28;69091;-38
2022/10/12 00:24:13;;;;;;;11.35;9.93;;;;;;;28.79;70.27;100927.47;5059920;28;65221;-38
2022/10/12 00:26:44;;;;;;;12.52;9.15;;;;;;;28.81;69.66;100930.81;5051681;28;70043;-38
2022/10/12 00:29:14;;;;;;;12.30;9.32;;;;;;;28.79;69.39;100927.47;5057904;28;66439;-38
2022/10/12 00:31:45;;;;;;;10.27;9.43;;;;;;;28.83;69.43;100939.53;5058094;28;70005;-38
2022/10/12 00:34:15;;;;;;;12.10;9.75;;;;;;;28.81;69.29;100925.41;5052107;28;66016;-38
2022/10/12 00:36:46;;;;;;;9.25;8.30;;;;;;;28.88;68.80;100937.03;5055596;28;69338;-38
2022/10/12 00:39:16;;;;;;;9.40;8.60;;;;;;;28.88;69.01;100925.41;5057471;28;65793;-37
2022/10/12 00:41:47;;;;;;;10.40;9.30;;;;;;;28.90;68.70;100926.88;5057383;28;69084;-37
2022/10/12 00:44:42;;;;;;;10.57;9.13;;;;;;;28.79;68.88;100922.09;5055515;28;65471;-37
2022/10/12 00:47:18;;;;;;;9.80;8.18;;;;;;;28.92;68.69;100926.69;5069480;27;69326;-39
2022/10/12 00:49:53;;;;;;;9.40;8.63;;;;;;;28.83;68.63;100917.91;5057801;28;66129;-39
2022/10/12 00:52:31;;;;;;;9.60;8.63;;;;;;;28.90;68.39;100918.78;5057148;28;70156;-39
2022/10/12 00:55:03;;;;;;;12.30;8.82;;;;;;;28.88;67.94;100918.13;5051195;28;66313;-38
2022/10/12 00:57:33;;;;;;;9.48;8.57;;;;;;;28.81;67.93;100914.63;5058242;28;69832;-38
2022/10/12 01:00:08;;;;;;;9.10;8.10;;;;;;;28.37;67.95;100826.91;5056820;28;65207;-38
2022/10/12 01:02:42;;;;;;;11.57;8.77;;;;;;;28.95;67.77;100916.28;5055787;28;70716;-39
2022/10/12 01:05:13;;;;;;;11.55;8.65;;;;;;;28.99;68.23;100926.69;5055583;28;66226;-38
2022/10/12 01:07:44;;;;;;;9.57;8.67;;;;;;;28.92;68.35;100921.28;5050395;28;70123;-38
2022/10/12 01:10:15;;;;;;;9.23;8.43;;;;;;;28.98;67.75;100919.63;5051029;28;66269;-39
2022/10/12 01:12:48;;;;;;;9.18;8.32;;;;;;;29.03;67.60;100928.81;5046235;28;70909;-38
2022/10/12 01:15:20;;;;;;;8.85;7.95;;;;;;;29.03;67.71;100922.50;5056150;28;65999;-38
2022/10/12 01:18:20;;;;;;;8.40;7.70;;;;;;;28.85;67.65;100932.06;5059023;28;70001;-38
2022/10/12 01:20:57;;;;;;;7.97;7.28;;;;;;;28.49;68.16;100852.25;5056189;28;66487;-37
2022/10/12 01:23:27;;;;;;;8.18;7.47;;;;;;;29.04;67.93;100930.44;5056020;28;70248;-37
2022/10/12 01:26:09;;;;;;;8.35;7.63;;;;;;;29.07;67.47;100929.22;5055786;28;66520;-38
2022/10/12 01:29:21;;;;;;;8.85;8.02;;;;;;;28.95;67.88;100937.91;5057159;28;70668;-38
2022/10/12 01:32:15;;;;;;;8.00;7.30;;;;;;;29.06;67.88;100932.94;5057865;28;65477;-38
2022/10/12 01:35:06;;;;;;;8.07;7.47;;;;;;;28.96;67.78;100927.91;5056626;28;70788;-38
2022/10/12 01:37:48;;;;;;;9.55;7.82;;;;;;;29.13;67.56;100939.19;5057326;28;66636;-38
2022/10/12 01:40:39;;;;;;;8.20;7.50;;;;;;;29.06;67.28;100927.53;5057046;28;70447;-38
2022/10/12 01:43:09;;;;;;;8.23;7.53;;;;;;;29.12;67.95;100937.53;5055318;28;66578;-38
2022/10/12 01:45:39;;;;;;;8.00;7.40;;;;;;;29.18;67.89;100942.09;5057482;28;69492;-38
2022/10/12 01:48:10;;;;;;;8.55;7.72;;;;;;;29.06;67.78;100905.91;5057191;28;65964;-39
2022/10/12 01:50:55;;;;;;;8.10;6.63;;;;;;;28.66;67.37;100846.47;5056828;28;70403;-37
2022/10/12 01:54:09;;;;;;;8.07;7.32;;;;;;;29.16;67.80;100938.75;5056593;28;65494;-37
2022/10/12 01:56:57;;;;;;;7.47;6.85;;;;;;;28.62;67.16;100848.75;5011209;28;70168;-36
2022/10/12 01:59:33;;;;;;;9.55;7.07;;;;;;;29.29;67.10;100943.34;5055388;28;65610;-39
2022/10/12 02:02:18;;;;;;;8.38;7.15;;;;;;;29.18;67.33;100939.41;5055191;28;69875;-38
2022/10/12 02:04:57;;;;;;;6.93;6.35;;;;;;;29.25;67.10;100928.56;5061266;28;65382;-38
2022/10/12 02:07:53;;;;;;;7.10;6.40;;;;;;;29.26;67.72;100939.19;5060282;28;70145;-38
2022/10/12 02:10:38;;;;;;;7.22;6.63;;;;;;;29.28;67.40;100936.25;5060383;28;66728;-39
2022/10/12 02:13:13;;;;;;;7.57;6.97;;;;;;;28.88;67.37;100861.44;5050135;28;70383;-38
2022/10/12 02:15:45;;;;;;;7.13;6.63;;;;;;;28.95;66.99;100859.59;5058519;28;66384;-38
2022/10/12 02:18:18;;;;;;;7.18;6.57;;;;;;;29.43;67.21;100941.47;5059249;28;70242;-38
2022/10/12 02:20:52;;;;;;;7.50;7.00;;;;;;;29.36;67.52;100928.81;5060334;28;66412;-38
2022/10/12 02:23:25;;;;;;;6.88;6.38;;;;;;;29.47;67.42;100934.59;5060124;28;70067;-38
2022/10/12 02:25:55;;;;;;;;;;;;;;;29.10;68.80;100934.19;5058532;28;66070;-38
2022/10/12 02:28:28;;;;;;;6.90;6.40;;;;;;;29.36;67.42;100923.41;5058071;28;70150;-38
2022/10/12 02:31:31;;;;;;;7.50;6.80;;;;;;;29.37;67.87;100922.34;5059517;28;65108;-38
2022/10/12 02:34:01;;;;;;;;;;;;;;;29.14;68.85;100924.63;5052123;28;70220;-38
2022/10/12 02:37:19;;;;;;;6.22;5.72;;;;;;;29.37;67.50;100916.13;5058005;28;65917;-38
2022/10/12 02:39:55;;;;;;;6.50;5.95;;;;;;;29.58;66.93;100910.44;5058268;28;69130;-39
2022/10/12 02:42:40;;;;;;;6.50;6.00;;;;;;;29.46;67.17;100884.31;5059131;28;66027;-38
2022/10/12 02:45:33;;;;;;;5.97;5.57;;;;;;;29.43;67.10;100868.50;5057984;28;69252;-38
2022/10/12 02:48:07;;;;;;;6.03;5.53;;;;;;;28.82;66.68;100770.47;5060527;28;66718;-38
2022/10/12 02:50:38;;;;;;;8.02;5.65;;;;;;;29.66;67.15;100900.50;5059191;28;70054;-38
2022/10/12 02:53:11;;;;;;;6.05;5.55;;;;;;;29.24;67.09;100822.41;5065016;28;66403;-37
2022/10/12 02:55:50;;;;;;;6.10;5.70;;;;;;;29.31;67.21;100825.94;5063269;28;69918;-37
2022/10/12 02:58:20;;;;;;;6.13;5.63;;;;;;;29.77;66.74;100887.16;5058973;28;66183;-38
2022/10/12 03:00:51;;;;;;;6.43;5.93;;;;;;;29.70;66.88;100867.44;5059806;28;69922;-38
2022/10/12 03:03:21;;;;;;;5.82;5.43;;;;;;;29.81;66.64;100882.16;5057618;28;65199;-38
2022/10/12 03:05:52;;;;;;;6.15;5.65;;;;;;;29.86;66.46;100878.81;5059001;28;71641;-38
2022/10/12 03:08:22;;;;;;;5.60;5.20;;;;;;;29.89;66.54;100879.22;5055863;28;66035;-37
2022/10/12 03:10:53;;;;;;;5.70;5.05;;;;;;;29.91;66.44;100879.84;5057829;28;70626;-37
2022/10/12 03:13:23;;;;;;;5.97;5.15;;;;;;;29.75;66.90;100851.38;5058859;28;66304;-38
2022/10/12 03:15:59;;;;;;;5.90;5.10;;;;;;;29.96;66.31;100879.19;5074382;27;69272;-37
2022/10/12 03:18:31;;;;;;;5.45;4.95;;;;;;;30.02;66.59;100878.34;5056939;28;66484;-37
2022/10/12 03:21:02;;;;;;;5.78;5.25;;;;;;;29.99;66.42;100889.59;5058868;28;70070;-37
2022/10/12 03:23:33;;;;;;;5.75;5.32;;;;;;;30.04;66.60;100884.38;5056612;28;64872;-37
2022/10/12 03:26:04;;;;;;;6.45;5.75;;;;;;;30.08;66.18;100877.47;5058380;28;70812;-37
2022/10/12 03:28:35;;;;;;;5.47;4.95;;;;;;;30.06;66.57;100875.00;5059561;28;66193;-39
2022/10/12 03:31:06;;;;;;;4.97;4.57;;;;;;;30.09;66.67;100872.88;5057516;28;71027;-37
2022/10/12 03:33:36;;;;;;;5.35;4.95;;;;;;;30.07;66.20;100859.59;5058558;28;66284;-37
2022/10/12 03:36:08;;;;;;;7.68;4.82;;;;;;;30.11;65.88;100863.50;5058933;28;70140;-39
2022/10/12 03:38:39;;;;;;;5.18;4.78;;;;;;;30.18;65.82;100875.13;5056867;28;66078;-37
2022/10/12 03:41:09;;;;;;;5.43;4.85;;;;;;;30.21;66.00;100872.00;5057963;28;70509;-37
2022/10/12 03:43:39;;;;;;;5.60;5.10;;;;;;;30.23;66.27;100861.00;5058502;28;66889;-37
2022/10/12 03:46:11;;;;;;;5.40;4.90;;;;;;;30.25;65.76;100862.41;5056434;28;70532;-39
2022/10/12 03:48:41;;;;;;;7.65;5.72;;;;;;;30.24;65.77;100860.78;5059894;28;66296;-37
2022/10/12 03:51:12;;;;;;;4.80;4.40;;;;;;;30.27;65.57;100854.94;5057946;28;70199;-39
2022/10/12 03:53:42;;;;;;;4.72;4.43;;;;;;;30.15;65.72;100835.00;5057639;28;66017;-38
2022/10/12 03:56:14;;;;;;;4.95;4.63;;;;;;;30.31;65.59;100851.78;5058038;28;69256;-39
2022/10/12 03:59:16;;;;;;;4.88;4.47;;;;;;;30.16;66.13;100846.66;5059693;28;66301;-38
2022/10/12 04:01:47;;;;;;;4.68;4.38;;;;;;;30.23;65.66;100828.53;5026338;28;69916;-39
2022/10/12 04:04:17;;;;;;;5.90;5.30;;;;;;;30.37;66.01;100838.22;5055573;28;66435;-38
2022/10/12 04:06:48;;;;;;;6.38;4.50;;;;;;;30.39;65.52;100833.41;5055942;28;69554;-38
2022/10/12 04:09:18;;;;;;;5.85;4.88;;;;;;;30.42;65.84;100824.03;5056993;28;65485;-38
2022/10/12 04:11:49;;;;;;;5.03;4.63;;;;;;;30.43;65.59;100812.16;5057203;28;69401;-42
2022/10/12 04:14:19;;;;;;;5.00;4.53;;;;;;;30.46;65.84;100803.59;5055068;28;66373;-37
2022/10/12 04:16:53;;;;;;;5.10;4.50;;;;;;;30.44;65.21;100792.16;5058770;28;70388;-44
2022/10/12 04:19:23;;;;;;;5.63;4.28;;;;;;;30.49;65.83;100792.34;5047766;28;66542;-38
2022/10/12 04:21:54;;;;;;;4.72;4.38;;;;;;;30.51;65.37;100795.66;5059260;28;69998;-38
2022/10/12 04:24:24;;;;;;;4.88;4.45;;;;;;;30.56;65.43;100797.69;5058335;28;66161;-38
2022/10/12 04:26:55;;;;;;;4.78;4.43;;;;;;;30.58;65.03;100799.13;5056383;28;70832;-38
2022/10/12 04:29:28;;;;;;;4.55;4.18;;;;;;;30.60;65.37;100799.75;5058286;28;64797;-38
2022/10/12 04:31:59;;;;;;;5.18;3.88;;;;;;;30.62;64.96;100786.81;5056105;28;70497;-42
2022/10/12 04:34:29;;;;;;;4.30;4.03;;;;;;;30.63;65.17;100782.25;5058045;28;66228;-38
2022/10/12 04:37:00;;;;;;;5.50;5.10;;;;;;;30.67;65.34;100778.88;5057810;28;69685;-38
2022/10/12 04:39:30;;;;;;;4.57;4.00;;;;;;;30.70;65.04;100775.72;5056245;28;65506;-38
2022/10/12 04:42:01;;;;;;;3.88;3.60;;;;;;;30.70;65.02;100756.78;5059228;28;70042;-42
2022/10/12 04:44:32;;;;;;;4.13;3.58;;;;;;;30.73;64.85;100755.50;5058538;28;66867;-38
2022/10/12 04:47:03;;;;;;;4.97;4.50;;;;;;;30.70;64.52;100740.53;5054287;28;69856;-38
2022/10/12 04:49:34;;;;;;;4.05;3.75;;;;;;;30.77;64.94;100745.03;5057663;28;66670;-38
2022/10/12 04:52:05;;;;;;;4.85;3.70;;;;;;;30.73;64.80;100733.84;5057125;28;70498;-37
2022/10/12 04:54:35;;;;;;;4.30;3.88;;;;;;;30.79;64.70;100737.53;5039880;28;66815;-37
2022/10/12 04:57:06;;;;;;;3.83;3.50;;;;;;;30.78;64.50;100730.44;5057726;28;70303;-38
2022/10/12 04:59:36;;;;;;;6.03;3.63;;;;;;;30.86;64.87;100725.59;5057689;28;66254;-38
2022/10/12 05:02:07;;;;;;;3.85;3.55;;;;;;;30.88;64.48;100731.63;5054296;28;70101;-39
2022/10/12 05:04:37;;;;;;;4.30;3.90;;;;;;;30.87;64.27;100715.56;5057392;28;66611;-39
2022/10/12 05:07:08;;;;;;;3.80;3.60;;;;;;;30.93;64.34;100730.97;5055371;28;70351;-39
2022/10/12 05:09:39;;;;;;;3.80;3.50;;;;;;;30.81;64.48;100703.75;5055417;28;66354;-39
2022/10/12 05:12:09;;;;;;;3.95;3.65;;;;;;;30.95;64.51;100723.41;5058033;28;69444;-39
2022/10/12 05:14:40;;;;;;;3.47;3.17;;;;;;;30.98;64.01;100722.13;5057464;28;66824;-37
2022/10/12 05:17:11;;;;;;;4.10;3.60;;;;;;;30.92;64.30;100710.31;5057508;28;70870;-39
2022/10/12 05:19:42;;;;;;;3.58;3.25;;;;;;;30.97;63.91;100712.38;5059743;28;65731;-37
2022/10/12 05:22:12;;;;;;;3.50;3.28;;;;;;;31.01;64.25;100727.09;5056383;28;70493;-38
2022/10/12 05:24:43;;;;;;;6.80;3.70;;;;;;;31.02;63.99;100718.75;5059479;28;66725;-40
2022/10/12 05:27:17;;;;;;;4.07;3.25;;;;;;;31.02;63.74;100705.22;5059562;28;70195;-37
2022/10/12 05:29:47;;;;;;;3.90;3.60;;;;;;;31.04;63.67;100708.53;5057708;28;66084;-39
2022/10/12 05:32:18;;;;;;;3.65;3.35;;;;;;;31.07;63.53;100702.66;5060621;28;69501;-39
2022/10/12 05:34:48;;;;;;;4.03;3.70;;;;;;;31.08;63.88;100704.31;5059651;28;66064;-38
2022/10/12 05:37:19;;;;;;;3.50;3.30;;;;;;;31.08;63.97;100700.78;5056377;28;69216;-37
2022/10/12 05:39:50;;;;;;;3.40;3.20;;;;;;;31.10;63.84;100695.97;5061463;28;66337;-37
2022/10/12 05:42:21;;;;;;;;;;;;;;;30.80;64.52;100696.69;5061729;28;69334;-38
2022/10/12 05:44:51;;;;;;;3.47;3.17;;;;;;;31.11;63.95;100694.91;5057421;28;65664;-38
2022/10/12 05:47:25;;;;;;;3.80;3.50;;;;;;;31.15;63.37;100698.84;5060389;28;69832;-37
2022/10/12 05:49:56;;;;;;;3.03;2.83;;;;;;;31.19;63.56;100693.78;5057316;28;66155;-37
2022/10/12 05:52:26;;;;;;;3.35;3.05;;;;;;;31.19;63.48;100688.34;5058297;28;69925;-38
2022/10/12 05:54:57;;;;;;;4.60;3.70;;;;;;;31.22;63.83;100693.31;5059554;28;66303;-39
2022/10/12 05:57:27;;;;;;;4.55;3.53;;;;;;;31.24;63.59;100691.22;5057681;28;69813;-39
2022/10/12 05:59:58;;;;;;;3.83;3.47;;;;;;;30.96;63.22;100638.41;5060169;28;66312;-39
2022/10/12 06:02:45;;;;;;;3.80;3.50;;;;;;;31.26;63.42;100670.97;5059006;28;70017;-39
2022/10/12 06:05:16;;;;;;;3.97;3.55;;;;;;;31.29;63.40;100677.81;5058566;28;65328;-38
2022/10/12 06:07:46;;;;;;;4.18;3.30;;;;;;;31.29;63.37;100667.81;5056716;28;70241;-38
2022/10/12 06:10:17;;;;;;;3.95;3.65;;;;;;;31.25;63.10;100646.81;5059876;28;66449;-38
2022/10/12 06:12:47;;;;;;;3.80;3.50;;;;;;;31.35;63.43;100650.63;5047164;28;70718;-38
2022/10/12 06:15:18;;;;;;;3.60;3.22;;;;;;;31.36;63.47;100646.06;5060139;28;65532;-38
2022/10/12 06:17:48;;;;;;;3.60;3.17;;;;;;;31.38;63.21;100633.94;5060391;28;70205;-37
2022/10/12 06:20:19;;;;;;;3.45;3.15;;;;;;;31.41;63.12;100632.66;5058842;28;66530;-37
2022/10/12 06:22:49;;;;;;;3.35;3.05;;;;;;;31.19;63.21;100593.53;5061084;28;70042;-38
2022/10/12 06:25:20;;;;;;;3.47;3.22;;;;;;;31.45;63.39;100619.44;5061204;28;66174;-37
2022/10/12 06:27:52;;;;;;;6.63;3.05;;;;;;;31.35;63.32;100601.00;5061026;28;70111;-37
2022/10/12 06:30:22;;;;;;;5.03;3.53;;;;;;;31.50;63.20;100619.59;5058727;28;65702;-37
2022/10/12 06:32:52;;;;;;;4.78;3.00;;;;;;;31.52;62.60;100607.47;5058931;28;70431;-38
2022/10/12 06:35:23;;;;;;;4.75;3.63;;;;;;;31.53;62.88;100609.09;5060135;28;66254;-38
2022/10/12 06:37:53;;;;;;;6.93;3.20;;;;;;;31.53;62.84;100589.31;5059619;28;70115;-39
2022/10/12 06:40:24;;;;;;;4.47;3.30;;;;;;;31.51;62.94;100589.56;5058057;28;65657;-39
2022/10/12 06:42:55;;;;;;;2.95;2.75;;;;;;;31.53;62.54;100576.56;5059468;28;70397;-38
2022/10/12 06:45:31;;;;;;;4.75;3.10;;;;;;;31.65;62.73;100589.31;5059590;28;66162;-38
2022/10/12 06:48:02;;;;;;;5.80;3.47;;;;;;;31.67;62.36;100584.50;5058071;28;70743;-38
2022/10/12 06:50:32;;;;;;;4.67;3.33;;;;;;;31.58;62.98;100560.44;5059789;28;66252;-38
2022/10/12 06:53:03;;;;;;;3.25;3.03;;;;;;;31.68;62.90;100569.88;5058137;28;70201;-38
2022/10/12 06:55:33;;;;;;;3.45;2.67;;;;;;;31.76;62.73;100569.53;5056316;28;66247;-38
2022/10/12 06:58:04;;;;;;;4.30;3.25;;;;;;;31.78;62.49;100572.84;5060298;28;70390;-38
2022/10/12 07:00:35;;;;;;;7.60;3.10;;;;;;;31.83;62.60;100576.50;5041187;28;66142;-38
2022/10/12 07:03:05;;;;;;;3.30;3.00;;;;;;;31.87;62.13;100565.19;5060004;28;70726;-38
2022/10/12 07:05:36;;;;;;;4.00;3.00;;;;;;;31.87;62.43;100559.75;5040866;28;65960;-38
2022/10/12 07:08:07;;;;;;;2.75;2.55;;;;;;;31.74;62.20;100531.00;5060155;28;69066;-38
2022/10/12 07:10:37;;;;;;;3.47;3.17;;;;;;;31.94;62.20;100549.66;5059110;28;66071;-38
2022/10/12 07:13:08;;;;;;;4.78;3.10;;;;;;;31.97;62.25;100546.47;5060476;28;70033;-38
2022/10/12 07:15:38;;;;;;;3.28;2.97;;;;;;;32.00;61.99;100549.53;5058126;28;66006;-38
2022/10/12 07:18:09;;;;;;;4.95;3.20;;;;;;;32.03;62.06;100540.94;5059502;28;70071;-37
2022/10/12 07:20:39;;;;;;;3.53;3.08;;;;;;;32.05;61.75;100529.84;5058925;28;66481;-37
2022/10/12 07:23:17;;;;;;;3.17;2.88;;;;;;;32.08;61.90;100542.13;5056125;28;70465;-37
2022/10/12 07:25:52;;;;;;;6.57;3.00;;;;;;;32.09;61.39;100535.63;5059379;28;65342;-38
2022/10/12 07:28:22;;;;;;;2.67;2.25;;;;;;;32.12;61.94;100541.38;5059886;28;70074;-37
2022/10/12 07:30:53;;;;;;;3.30;3.10;;;;;;;32.16;61.80;100536.34;5057757;28;66496;-37
2022/10/12 07:33:24;;;;;;;3.25;2.67;;;;;;;32.17;61.28;100529.84;5058976;28;70683;-37
2022/10/12 07:35:55;;;;;;;2.88;2.67;;;;;;;32.11;61.38;100523.47;5058033;28;65491;-39
2022/10/12 07:38:47;;;;;;;4.43;3.22;;;;;;;32.18;61.47;100545.03;5058256;28;69202;-38
2022/10/12 07:41:19;;;;;;;3.10;2.80;;;;;;;32.22;61.22;100540.81;5058068;28;65938;-38
2022/10/12 07:43:55;;;;;;;3.80;2.65;;;;;;;31.78;61.31;100470.59;5059887;28;70386;-38
2022/10/12 07:46:26;;;;;;;3.33;3.03;;;;;;;32.26;61.50;100548.25;5058322;28;66633;-38
2022/10/12 07:49:12;;;;;;;5.85;2.97;;;;;;;32.24;61.01;100538.69;5054333;28;69540;-38
2022/10/12 07:51:43;;;;;;;2.70;2.50;;;;;;;32.22;61.39;100527.25;5058895;28;66731;-38
2022/10/12 07:54:14;;;;;;;2.70;2.50;;;;;;;32.23;61.30;100526.16;5039453;28;69901;-38
2022/10/12 07:56:50;;;;;;;2.72;2.53;;;;;;;32.27;61.51;100528.19;5059268;28;66281;-37
2022/10/12 07:59:20;;;;;;;3.95;2.80;;;;;;;32.17;61.07;100513.56;5058765;28;69974;-38
2022/10/12 08:01:51;;;;;;;2.97;2.55;;;;;;;32.31;60.95;100533.13;5057062;27;66019;-38
2022/10/12 08:04:22;;;;;;;2.78;2.58;;;;;;;32.33;61.19;100531.00;5057987;28;70526;-38
2022/10/12 08:06:53;;;;;;;3.20;2.90;;;;;;;32.31;61.19;100523.09;5056295;28;65251;-38
2022/10/12 08:09:23;;;;;;;3.47;3.17;;;;;;;32.32;61.00;100519.31;5057465;28;70598;-38
2022/10/12 08:12:23;;;;;;;2.90;2.70;;;;;;;32.22;61.38;100522.63;5059503;28;66559;-38
2022/10/12 08:15:13;;;;;;;3.92;2.65;;;;;;;32.35;60.99;100509.88;5052108;28;70618;-38
2022/10/12 08:17:44;;;;;;;3.03;2.50;;;;;;;32.34;61.26;100514.47;5056659;28;66313;-38
2022/10/12 08:20:14;;;;;;;3.10;2.75;;;;;;;32.37;61.18;100516.69;5058503;28;70254;-38
2022/10/12 08:22:45;;;;;;;4.90;3.05;;;;;;;32.38;61.33;100521.09;5059610;28;65823;-38
2022/10/12 08:25:15;;;;;;;3.10;2.80;;;;;;;32.37;61.09;100516.69;5056719;28;70401;-37
2022/10/12 08:27:46;;;;;;;3.00;2.80;;;;;;;32.40;61.28;100516.25;5057034;28;66956;-37
2022/10/12 08:30:16;;;;;;;3.38;3.08;;;;;;;32.38;60.97;100517.53;5058311;28;69890;-37
2022/10/12 08:32:47;;;;;;;3.38;3.08;;;;;;;32.41;60.98;100517.88;5057150;28;66549;-37
2022/10/12 08:35:17;;;;;;;3.70;2.95;;;;;;;32.41;60.91;100531.47;5058179;28;70939;-38
2022/10/12 08:37:48;;;;;;;4.60;2.60;;;;;;;32.33;61.00;100506.56;5056898;28;66402;-37
2022/10/12 08:40:29;;;;;;;2.90;2.70;;;;;;;32.42;60.87;100532.28;5067156;27;69490;-38
2022/10/12 08:43:29;;;;;;;3.38;2.65;;;;;;;31.89;60.89;100455.41;5057785;28;66363;-37
2022/10/12 08:46:03;;;;;;;3.08;2.78;;;;;;;32.39;60.99;100525.44;5055970;28;70142;-38
2022/10/12 08:48:49;;;;;;;2.95;2.75;;;;;;;32.43;60.75;100528.50;5058771;28;66332;-38
2022/10/12 08:51:25;;;;;;;3.08;2.88;;;;;;;32.00;60.93;100456.47;5057054;28;69951;-38
2022/10/12 08:54:13;;;;;;;3.17;2.92;;;;;;;32.27;60.79;100516.50;5059486;28;65488;-38
2022/10/12 08:56:44;;;;;;;3.10;2.90;;;;;;;32.46;60.87;100537.03;5049077;28;69466;-39
2022/10/12 08:59:18;;;;;;;3.30;3.00;;;;;;;32.32;60.69;100508.47;5057153;28;65211;-38
2022/10/12 09:01:54;;;;;;;5.55;3.15;;;;;;;32.47;60.86;100538.66;5053554;28;70597;-38
2022/10/12 09:04:53;;;;;;;2.95;2.70;;;;;;;32.02;61.05;100485.03;5065295;27;65926;-38
2022/10/12 09:07:33;;;;;;;3.35;3.15;;;;;;;32.43;61.10;100542.91;5048381;28;70222;-38
2022/10/12 09:10:22;;;;;;;5.20;3.70;;;;;;;32.37;60.90;100554.69;5053686;28;67188;-38
2022/10/12 09:13:10;;;;;;;4.25;3.42;;;;;;;32.41;60.89;100557.78;5047003;28;70223;-40
2022/10/12 09:15:56;;;;;;;6.63;3.83;;;;;;;32.39;61.03;100563.44;5055718;28;66658;-37
2022/10/12 09:18:43;;;;;;;2.97;2.67;;;;;;;32.37;60.94;100573.69;5055674;28;69404;-37
2022/10/12 09:21:17;;;;;;;3.40;3.08;;;;;;;32.38;61.16;100560.97;5058036;28;66486;-37
2022/10/12 09:23:51;;;;;;;3.40;3.17;;;;;;;32.45;61.02;100578.78;5058894;28;43022;-39
2022/10/12 09:26:43;;;;;;;3.27;3.00;;;;;;;32.34;61.35;100579.59;5055920;28;67175;-39
2022/10/12 09:29:32;;;;;;;5.60;2.95;;;;;;;32.24;61.15;100554.97;5049051;28;70484;-39
2022/10/12 09:32:32;;;;;;;6.38;3.53;;;;;;;31.92;61.21;100517.34;5056385;28;65950;-39
2022/10/12 09:35:06;;;;;;;3.75;3.45;;;;;;;31.61;61.03;100453.41;5055190;28;69197;-39
2022/10/12 09:37:38;;;;;;;4.00;3.70;;;;;;;32.41;61.15;100576.78;5057858;28;66401;-37
2022/10/12 09:40:26;;;;;;;5.30;3.90;;;;;;;32.00;61.22;100538.69;5055329;28;69728;-38
2022/10/12 09:43:00;;;;;;;6.05;3.72;;;;;;;32.45;61.06;100599.66;5060564;28;66803;-38
2022/10/12 09:45:34;;;;;;;6.10;3.97;;;;;;;32.44;61.22;100609.72;5057842;28;69972;-38
2022/10/12 09:48:12;;;;;;;4.55;4.13;;;;;;;32.42;61.36;100605.56;5058418;28;66427;-39
2022/10/12 09:50:48;;;;;;;9.68;4.85;;;;;;;32.43;61.44;100608.06;5057939;28;70232;-38
2022/10/12 09:53:40;;;;;;;7.68;4.93;;;;;;;32.39;61.69;100617.72;5056829;28;66412;-38
2022/10/12 09:56:22;;;;;;;7.97;4.88;;;;;;;32.31;61.57;100601.81;5055519;28;69673;-38
2022/10/12 09:59:04;;;;;;;9.43;5.13;;;;;;;32.14;61.67;100587.28;5057817;28;66448;-38
2022/10/12 10:01:37;;;;;;;5.45;4.95;;;;;;;32.29;61.72;100598.53;5055612;28;69879;-38
2022/10/12 10:04:13;;;;;;;5.13;4.82;;;;;;;32.39;61.87;100623.16;5068112;28;66273;-38
2022/10/12 10:06:45;;;;;;;9.13;5.50;;;;;;;31.87;61.87;100544.31;5054325;28;70359;-39
2022/10/12 10:09:35;;;;;;;7.38;5.30;;;;;;;32.29;62.17;100631.09;5056345;28;66557;-38
2022/10/12 10:12:26;;;;;;;7.45;4.70;;;;;;;31.78;62.08;100551.16;5057316;28;70263;-39
2022/10/12 10:14:58;;;;;;;11.82;5.03;;;;;;;32.36;62.01;100642.63;5059916;28;66095;-40
2022/10/12 10:17:35;;;;;;;12.65;5.32;;;;;;;32.36;62.00;100633.69;5054137;28;70144;-40
2022/10/12 10:20:21;;;;;;;6.53;5.50;;;;;;;31.90;62.07;100565.56;5057643;28;65519;-39
2022/10/12 10:22:52;;;;;;;6.07;5.05;;;;;;;32.33;62.29;100642.28;5055347;28;70190;-39
2022/10/12 10:25:24;;;;;;;9.35;5.13;;;;;;;32.31;62.21;100647.94;5060599;28;66354;-39
2022/10/12 10:28:40;;;;;;;5.97;5.10;;;;;;;32.18;62.87;100648.16;5060495;28;70105;-40
2022/10/12 10:31:20;;;;;;;13.13;4.95;;;;;;;32.29;62.36;100644.66;5059943;28;66249;-39
2022/10/12 10:34:23;;;;;;;5.90;4.45;;;;;;;32.13;62.95;100645.34;5058606;28;70157;-37
2022/10/12 10:37:19;;;;;;;6.10;5.07;;;;;;;31.78;62.67;100573.66;5018077;28;65167;-40
2022/10/12 10:39:52;;;;;;;5.53;5.00;;;;;;;31.97;63.92;100642.25;5055656;28;70265;-38
2022/10/12 10:42:28;;;;;;;8.93;6.55;;;;;;;31.86;65.29;100659.31;5067504;28;65863;-41
2022/10/12 10:45:10;;;;;;;12.05;6.75;;;;;;;31.81;66.07;100656.47;5070020;28;69674;-39
2022/10/12 10:47:45;;;;;;;17.73;7.78;;;;;;;31.73;67.00;100663.06;5051233;28;66336;-40
2022/10/12 10:50:34;;;;;;;8.40;7.63;;;;;;;31.64;67.81;100663.59;5056174;28;70367;-40
2022/10/12 10:53:26;;;;;;;9.18;8.13;;;;;;;31.66;68.35;100669.63;5062771;28;66334;-40
2022/10/12 10:56:30;;;;;;;10.18;8.30;;;;;;;31.52;69.49;100661.69;5062603;28;69408;-39
2022/10/12 10:59:14;;;;;;;9.00;8.13;;;;;;;31.11;69.75;100595.47;5065150;28;66013;-39
2022/10/12 11:01:53;;;;;;;16.92;9.77;;;;;;;31.63;70.80;100668.22;5067165;28;70174;-38
2022/10/12 11:04:38;;;;;;;13.50;9.55;;;;;;;31.10;71.33;100599.25;5060095;28;66381;-38
2022/10/12 11:07:27;;;;;;;16.25;9.70;;;;;;;31.55;71.38;100682.09;5059024;28;69419;-39
2022/10/12 11:10:02;;;;;;;14.80;9.13;;;;;;;31.60;71.32;100688.47;5073061;27;66246;-39
2022/10/12 11:12:45;;;;;;;11.13;9.50;;;;;;;31.55;71.56;100682.09;5062184;27;69317;-39
2022/10/12 11:15:25;;;;;;;11.07;8.88;;;;;;;30.78;71.57;100557.13;5060059;28;65719;-39
2022/10/12 11:18:11;;;;;;;11.95;10.35;;;;;;;31.12;71.51;100608.00;5049631;28;69677;-40
2022/10/12 11:21:14;;;;;;;15.57;9.80;;;;;;;31.50;71.93;100682.75;5056488;28;66259;-39
2022/10/12 11:24:12;;;;;;;10.82;9.98;;;;;;;31.44;72.27;100682.88;5055852;28;70233;-40
2022/10/12 11:27:12;;;;;;;14.82;10.27;;;;;;;31.50;72.25;100688.19;5054532;28;65489;-39
2022/10/12 11:29:44;;;;;;;13.35;9.95;;;;;;;31.45;72.46;100693.47;5059471;28;69108;-39
2022/10/12 11:33:05;;;;;;;15.73;11.18;;;;;;;30.95;72.30;100606.94;5053578;28;66766;-39
2022/10/12 11:35:40;;;;;;;11.73;10.43;;;;;;;31.51;72.29;100710.69;5037678;28;69328;-38
2022/10/12 11:38:21;;;;;;;13.82;10.52;;;;;;;31.50;72.51;100707.16;5060893;28;65824;-39
2022/10/12 11:41:11;;;;;;;12.43;11.07;;;;;;;31.37;72.60;100691.06;5061335;28;70019;-39
2022/10/12 11:44:09;;;;;;;20.45;12.07;;;;;;;31.12;72.49;100640.50;5052811;28;67167;-39
2022/10/12 11:47:17;;;;;;;21.92;11.38;;;;;;;31.36;73.84;100705.69;5057962;28;69644;-39
2022/10/12 11:50:05;;;;;;;20.88;12.88;;;;;;;31.40;73.50;100706.91;5057974;28;66369;-39
2022/10/12 11:52:46;;;;;;;20.42;12.75;;;;;;;30.96;73.71;100633.00;5060610;28;70170;-39
2022/10/12 11:55:31;;;;;;;17.80;12.20;;;;;;;31.46;73.28;100708.69;5053568;28;66569;-37
2022/10/12 11:58:17;;;;;;;18.27;12.55;;;;;;;30.99;73.78;100640.66;5057934;28;70403;-40
2022/10/12 12:01:41;;;;;;;14.65;13.07;;;;;;;30.85;74.59;100639.16;5054371;28;65959;-38
2022/10/12 12:04:31;;;;;;;17.20;13.45;;;;;;;31.34;74.32;100713.16;5054171;28;69519;-40
2022/10/12 12:07:38;;;;;;;17.48;13.38;;;;;;;31.27;74.99;100717.88;5048191;28;65401;-39
2022/10/12 12:10:29;;;;;;;18.20;13.48;;;;;;;31.28;75.09;100727.63;5054197;28;69497;-39